Portada
METAR-TAF:

METAR-TAF

Aeropuertos :

Aeropuerto de Chitá-Kadala

Chitá, Rusia

latitud: 52-05N, longitud: 113-29E, altitud: 685 m

Observación

El informe se hizo hace 48 minutos, a las 11:00 UTC
Viento 2 kt del este
Temperatura -21°C
Humedad 70%
Presión 1008 hPa
Visibilidad: 9000 m

METAR: UIAA 201100Z 10001MPS 9000 NSC M21/M25 Q1008 R29/390145 NOSIG RMK QFE698/0931

Hora: 20:48 (11:48 UTC)

Pronóstico

El informe se hizo hace 48 minutos, a las 11:00 UTC
Pronóstico válido del 20 a las 12 UTC al 21 a las 12 UTC
Viento 6 kt del este-noreste
Visibilidad: 5000 m
neblina, humo
Temporalmente
del 20 a las 12 UTC al 20 a las 24 UTC
Visibilidad: 3100 m
neblina, humo
A partir de las 21 a las 0000 UTC
Viento 12 kt del oeste con ráfagas de 23 kt
Visibilidad 10 km o más
Nubes dispersas a una altura de 4000 ft, Cumulonimbus.

TAF: UIAA 201100Z 2012/2112 06003MPS 5000 BR FU NSC TEMPO 2012/2024 3100 BR FU FM210000 28006G12MPS 9999 SCT040CB

Observaciones y pronósticos meteorológicos de más de 4000 aeropuertos (mensajes METAR y TAF).

Los puntos amarillos y rojos representan las estaciones disponibles.

Ponga el ratón en el punto deseado para ver el nombre de la estación.

Haga clic para ver las observaciones y los pronósticos meteorológicos.

Para cambiar el mapa : haga clic en los botones verdes con una cruz de color negro para hacer un zoom, en el botón verde con un guión para alejar o en las flechas verdes para mapas adyacentes.


METAR-TAF: